Gildford, Montana
Current Conditions -  °F | °C
As of 2:53 AM on Sunday 23 Nov 2014 (Local Time) from KHVR Reporting Station
Overcast Overcast  
Wind Chill: 23°   Ceiling: 6000
Heat Index: 34°   Visibility: 10mi
Dew Point: 25°   Wind: 20mph
Humidity: 70%   Direction: 290°WNW
Pressure: 29.74"   Gusts: NA
Location:  48.56°N, 110.3°W
Report Text: KHVR 230953Z AUTO 29017KT 10SM BKN060 OVC070 01/M04 A2974 RMK AO2 PK WND 30028/0906 SLP085 T00111039
Loading
Personal Weather Stations






























Interactive Weather Map New forecast layout! Learn more

10-Day Weather Forecast

Advertisements
Track Severe Weather on mobile